sensor_id;sensor_type;location;lat;lon;timestamp;pressure;altitude;pressure_sealevel;temperature;humidity
35435;BME280;21556;55.782;37.528;2023-11-21T00:02:01;99288.81;;;-4.63;100.00
35435;BME280;21556;55.782;37.528;2023-11-21T00:04:27;99289.84;;;-4.61;100.00
35435;BME280;21556;55.782;37.528;2023-11-21T00:06:54;99292.00;;;-4.78;100.00
35435;BME280;21556;55.782;37.528;2023-11-21T00:09:20;99290.28;;;-4.66;100.00
35435;BME280;21556;55.782;37.528;2023-11-21T00:11:46;99287.84;;;-4.40;100.00
35435;BME280;21556;55.782;37.528;2023-11-21T00:14:12;99288.84;;;-4.38;100.00
35435;BME280;21556;55.782;37.528;2023-11-21T00:16:39;99292.50;;;-4.09;100.00
35435;BME280;21556;55.782;37.528;2023-11-21T00:19:05;99295.28;;;-4.06;100.00
35435;BME280;21556;55.782;37.528;2023-11-21T00:21:31;99298.00;;;-4.41;100.00
35435;BME280;21556;55.782;37.528;2023-11-21T00:23:57;99287.38;;;-4.59;100.00
35435;BME280;21556;55.782;37.528;2023-11-21T00:26:24;99286.63;;;-4.70;100.00
35435;BME280;21556;55.782;37.528;2023-11-21T00:29:00;99294.97;;;-4.61;100.00
35435;BME280;21556;55.782;37.528;2023-11-21T00:31:26;99288.81;;;-4.63;100.00
35435;BME280;21556;55.782;37.528;2023-11-21T00:33:52;99282.31;;;-4.46;100.00
35435;BME280;21556;55.782;37.528;2023-11-21T00:36:20;99280.66;;;-4.45;100.00
35435;BME280;21556;55.782;37.528;2023-11-21T00:38:46;99280.34;;;-4.62;100.00
35435;BME280;21556;55.782;37.528;2023-11-21T00:41:14;99282.50;;;-4.18;100.00
35435;BME280;21556;55.782;37.528;2023-11-21T00:43:40;99283.25;;;-4.57;100.00
35435;BME280;21556;55.782;37.528;2023-11-21T00:46:06;99280.34;;;-4.50;100.00
35435;BME280;21556;55.782;37.528;2023-11-21T00:48:35;99278.91;;;-4.58;100.00
35435;BME280;21556;55.782;37.528;2023-11-21T00:51:01;99277.13;;;-4.59;100.00
35435;BME280;21556;55.782;37.528;2023-11-21T00:53:27;99274.16;;;-4.40;100.00
35435;BME280;21556;55.782;37.528;2023-11-21T00:55:55;99271.22;;;-4.33;100.00
35435;BME280;21556;55.782;37.528;2023-11-21T00:58:26;99274.50;;;-4.22;100.00
35435;BME280;21556;55.782;37.528;2023-11-21T01:00:52;99278.44;;;-4.27;100.00
35435;BME280;21556;55.782;37.528;2023-11-21T01:03:18;99275.66;;;-4.30;100.00
35435;BME280;21556;55.782;37.528;2023-11-21T01:05:45;99279.47;;;-4.99;100.00
35435;BME280;21556;55.782;37.528;2023-11-21T01:08:11;99272.47;;;-4.90;100.00
35435;BME280;21556;55.782;37.528;2023-11-21T01:10:37;99280.97;;;-5.26;100.00
35435;BME280;21556;55.782;37.528;2023-11-21T01:13:03;99285.22;;;-4.78;100.00
35435;BME280;21556;55.782;37.528;2023-11-21T01:15:33;99279.59;;;-4.97;100.00
35435;BME280;21556;55.782;37.528;2023-11-21T01:17:59;99283.09;;;-4.72;100.00
35435;BME280;21556;55.782;37.528;2023-11-21T01:20:25;99270.91;;;-4.63;100.00
35435;BME280;21556;55.782;37.528;2023-11-21T01:22:51;99278.66;;;-4.49;100.00
35435;BME280;21556;55.782;37.528;2023-11-21T01:25:20;99278.88;;;-4.83;100.00
35435;BME280;21556;55.782;37.528;2023-11-21T01:27:48;99276.16;;;-5.10;100.00
35435;BME280;21556;55.782;37.528;2023-11-21T01:30:14;99271.66;;;-4.27;100.00
35435;BME280;21556;55.782;37.528;2023-11-21T01:32:42;99275.22;;;-4.50;100.00
35435;BME280;21556;55.782;37.528;2023-11-21T01:35:09;99275.66;;;-4.55;100.00
35435;BME280;21556;55.782;37.528;2023-11-21T01:37:37;99276.69;;;-4.53;100.00
35435;BME280;21556;55.782;37.528;2023-11-21T01:40:03;99279.94;;;-5.04;100.00
35435;BME280;21556;55.782;37.528;2023-11-21T01:42:34;99287.31;;;-4.47;100.00
35435;BME280;21556;55.782;37.528;2023-11-21T01:45:01;99287.09;;;-4.50;100.00
35435;BME280;21556;55.782;37.528;2023-11-21T01:47:29;99288.47;;;-4.92;100.00
35435;BME280;21556;55.782;37.528;2023-11-21T01:49:55;99286.06;;;-4.66;100.00
35435;BME280;21556;55.782;37.528;2023-11-21T01:52:22;99280.22;;;-4.88;100.00
35435;BME280;21556;55.782;37.528;2023-11-21T01:54:48;99281.47;;;-4.33;100.00
35435;BME280;21556;55.782;37.528;2023-11-21T01:57:19;99288.16;;;-4.10;100.00
35435;BME280;21556;55.782;37.528;2023-11-21T01:59:48;99274.78;;;-4.31;100.00
35435;BME280;21556;55.782;37.528;2023-11-21T02:02:15;99281.31;;;-4.85;100.00
35435;BME280;21556;55.782;37.528;2023-11-21T02:04:42;99285.91;;;-4.55;100.00
35435;BME280;21556;55.782;37.528;2023-11-21T02:07:08;99274.78;;;-4.56;100.00
35435;BME280;21556;55.782;37.528;2023-11-21T02:09:37;99278.16;;;-4.32;100.00
35435;BME280;21556;55.782;37.528;2023-11-21T02:12:09;99281.97;;;-4.75;100.00
35435;BME280;21556;55.782;37.528;2023-11-21T02:14:39;99274.50;;;-4.47;100.00
35435;BME280;21556;55.782;37.528;2023-11-21T02:17:05;99284.38;;;-4.28;100.00
35435;BME280;21556;55.782;37.528;2023-11-21T02:19:32;99282.91;;;-4.50;100.00
35435;BME280;21556;55.782;37.528;2023-11-21T02:22:19;99274.25;;;-4.64;100.00
35435;BME280;21556;55.782;37.528;2023-11-21T02:24:46;99286.53;;;-4.83;100.00
35435;BME280;21556;55.782;37.528;2023-11-21T02:27:13;99291.81;;;-5.05;100.00
35435;BME280;21556;55.782;37.528;2023-11-21T02:29:39;99284.16;;;-4.56;100.00
35435;BME280;21556;55.782;37.528;2023-11-21T02:32:08;99282.69;;;-5.01;100.00
35435;BME280;21556;55.782;37.528;2023-11-21T02:34:36;99296.75;;;-5.32;100.00
35435;BME280;21556;55.782;37.528;2023-11-21T02:37:03;99288.13;;;-4.85;100.00
35435;BME280;21556;55.782;37.528;2023-11-21T02:39:31;99289.03;;;-4.60;100.00
35435;BME280;21556;55.782;37.528;2023-11-21T02:41:57;99289.44;;;-4.78;100.00
35435;BME280;21556;55.782;37.528;2023-11-21T02:44:23;99289.50;;;-4.65;100.00
35435;BME280;21556;55.782;37.528;2023-11-21T02:46:52;99296.41;;;-4.76;100.00
35435;BME280;21556;55.782;37.528;2023-11-21T02:49:18;99303.56;;;-4.84;100.00
35435;BME280;21556;55.782;37.528;2023-11-21T02:51:43;99306.72;;;-4.99;100.00
35435;BME280;21556;55.782;37.528;2023-11-21T02:54:10;99307.84;;;-5.07;100.00
35435;BME280;21556;55.782;37.528;2023-11-21T02:56:36;99303.84;;;-4.55;100.00
35435;BME280;21556;55.782;37.528;2023-11-21T02:59:03;99303.88;;;-4.67;100.00
35435;BME280;21556;55.782;37.528;2023-11-21T03:01:30;99305.28;;;-4.96;100.00
35435;BME280;21556;55.782;37.528;2023-11-21T03:03:56;99307.50;;;-5.12;100.00
35435;BME280;21556;55.782;37.528;2023-11-21T03:06:22;99309.22;;;-4.64;100.00
35435;BME280;21556;55.782;37.528;2023-11-21T03:08:49;99317.25;;;-4.83;100.00
35435;BME280;21556;55.782;37.528;2023-11-21T03:11:16;99304.34;;;-4.48;100.00
35435;BME280;21556;55.782;37.528;2023-11-21T03:13:44;99312.63;;;-4.52;100.00
35435;BME280;21556;55.782;37.528;2023-11-21T03:16:11;99313.97;;;-4.57;100.00
35435;BME280;21556;55.782;37.528;2023-11-21T03:18:38;99317.78;;;-4.64;100.00
35435;BME280;21556;55.782;37.528;2023-11-21T03:21:05;99313.63;;;-4.98;100.00
35435;BME280;21556;55.782;37.528;2023-11-21T03:23:31;99320.75;;;-5.06;100.00
35435;BME280;21556;55.782;37.528;2023-11-21T03:25:58;99319.16;;;-4.80;100.00
35435;BME280;21556;55.782;37.528;2023-11-21T03:28:26;99310.31;;;-4.97;100.00
35435;BME280;21556;55.782;37.528;2023-11-21T03:30:53;99320.06;;;-4.92;100.00
35435;BME280;21556;55.782;37.528;2023-11-21T03:33:22;99319.41;;;-5.71;100.00
35435;BME280;21556;55.782;37.528;2023-11-21T03:35:48;99312.16;;;-4.95;100.00
35435;BME280;21556;55.782;37.528;2023-11-21T03:38:15;99321.84;;;-5.02;100.00
35435;BME280;21556;55.782;37.528;2023-11-21T03:40:42;99329.66;;;-5.01;100.00
35435;BME280;21556;55.782;37.528;2023-11-21T03:43:08;99326.59;;;-4.84;100.00
35435;BME280;21556;55.782;37.528;2023-11-21T03:45:34;99320.97;;;-4.29;100.00
35435;BME280;21556;55.782;37.528;2023-11-21T03:48:00;99329.63;;;-4.89;100.00
35435;BME280;21556;55.782;37.528;2023-11-21T03:50:29;99327.22;;;-4.63;100.00
35435;BME280;21556;55.782;37.528;2023-11-21T03:52:55;99333.53;;;-4.82;100.00
35435;BME280;21556;55.782;37.528;2023-11-21T03:55:21;99337.22;;;-5.26;100.00
35435;BME280;21556;55.782;37.528;2023-11-21T03:57:50;99332.50;;;-4.85;100.00
35435;BME280;21556;55.782;37.528;2023-11-21T04:00:19;99326.75;;;-5.05;100.00
35435;BME280;21556;55.782;37.528;2023-11-21T04:02:48;99342.13;;;-5.29;100.00
35435;BME280;21556;55.782;37.528;2023-11-21T04:05:14;99340.88;;;-5.34;100.00
35435;BME280;21556;55.782;37.528;2023-11-21T04:07:40;99332.34;;;-5.23;100.00
35435;BME280;21556;55.782;37.528;2023-11-21T04:10:07;99334.22;;;-5.32;100.00
35435;BME280;21556;55.782;37.528;2023-11-21T04:12:38;99338.00;;;-5.27;100.00
35435;BME280;21556;55.782;37.528;2023-11-21T04:15:08;99329.03;;;-4.73;100.00
35435;BME280;21556;55.782;37.528;2023-11-21T04:17:35;99328.41;;;-5.41;100.00
35435;BME280;21556;55.782;37.528;2023-11-21T04:20:05;99332.78;;;-5.28;100.00
35435;BME280;21556;55.782;37.528;2023-11-21T04:22:43;99331.41;;;-4.88;100.00
35435;BME280;21556;55.782;37.528;2023-11-21T04:25:10;99325.94;;;-4.81;100.00
35435;BME280;21556;55.782;37.528;2023-11-21T04:27:39;99331.72;;;-4.72;100.00
35435;BME280;21556;55.782;37.528;2023-11-21T04:30:05;99333.94;;;-4.65;100.00
35435;BME280;21556;55.782;37.528;2023-11-21T04:32:31;99336.88;;;-4.95;100.00
35435;BME280;21556;55.782;37.528;2023-11-21T04:34:58;99339.19;;;-4.98;100.00
35435;BME280;21556;55.782;37.528;2023-11-21T04:37:24;99340.75;;;-5.12;100.00
35435;BME280;21556;55.782;37.528;2023-11-21T04:39:50;99341.69;;;-5.12;100.00
35435;BME280;21556;55.782;37.528;2023-11-21T04:42:17;99351.34;;;-5.07;100.00
35435;BME280;21556;55.782;37.528;2023-11-21T04:44:43;99361.03;;;-5.15;100.00
35435;BME280;21556;55.782;37.528;2023-11-21T04:47:10;99362.91;;;-5.24;100.00
35435;BME280;21556;55.782;37.528;2023-11-21T04:49:36;99356.56;;;-4.82;100.00
35435;BME280;21556;55.782;37.528;2023-11-21T04:52:02;99362.34;;;-4.85;100.00
35435;BME280;21556;55.782;37.528;2023-11-21T04:54:30;99352.53;;;-5.38;100.00
35435;BME280;21556;55.782;37.528;2023-11-21T04:56:57;99358.13;;;-4.96;100.00
35435;BME280;21556;55.782;37.528;2023-11-21T04:59:24;99365.91;;;-4.95;100.00
35435;BME280;21556;55.782;37.528;2023-11-21T05:01:54;99369.13;;;-5.21;100.00
35435;BME280;21556;55.782;37.528;2023-11-21T05:04:20;99373.97;;;-4.65;100.00
35435;BME280;21556;55.782;37.528;2023-11-21T05:06:49;99374.31;;;-4.61;100.00
35435;BME280;21556;55.782;37.528;2023-11-21T05:09:15;99372.09;;;-4.79;100.00
35435;BME280;21556;55.782;37.528;2023-11-21T05:11:42;99375.56;;;-5.02;100.00
35435;BME280;21556;55.782;37.528;2023-11-21T05:14:08;99373.91;;;-4.78;100.00
35435;BME280;21556;55.782;37.528;2023-11-21T05:16:34;99381.81;;;-4.99;100.00
35435;BME280;21556;55.782;37.528;2023-11-21T05:19:01;99388.97;;;-4.58;100.00
35435;BME280;21556;55.782;37.528;2023-11-21T05:21:27;99377.84;;;-4.58;100.00
35435;BME280;21556;55.782;37.528;2023-11-21T05:24:00;99378.22;;;-4.66;100.00
35435;BME280;21556;55.782;37.528;2023-11-21T05:26:26;99365.22;;;-4.80;100.00
35435;BME280;21556;55.782;37.528;2023-11-21T05:29:00;99376.66;;;-4.64;100.00
35435;BME280;21556;55.782;37.528;2023-11-21T05:31:26;99369.81;;;-5.92;100.00
35435;BME280;21556;55.782;37.528;2023-11-21T05:33:55;99369.03;;;-5.11;100.00
35435;BME280;21556;55.782;37.528;2023-11-21T05:36:21;99370.78;;;-4.98;100.00
35435;BME280;21556;55.782;37.528;2023-11-21T05:38:48;99367.22;;;-4.76;100.00
35435;BME280;21556;55.782;37.528;2023-11-21T05:41:15;99372.22;;;-5.01;100.00
35435;BME280;21556;55.782;37.528;2023-11-21T05:43:43;99372.56;;;-5.09;100.00
35435;BME280;21556;55.782;37.528;2023-11-21T05:46:09;99369.13;;;-4.86;100.00
35435;BME280;21556;55.782;37.528;2023-11-21T05:48:35;99371.59;;;-5.11;100.00
35435;BME280;21556;55.782;37.528;2023-11-21T05:51:07;99375.91;;;-4.86;100.00
35435;BME280;21556;55.782;37.528;2023-11-21T05:53:34;99366.38;;;-5.00;100.00
35435;BME280;21556;55.782;37.528;2023-11-21T05:56:00;99371.00;;;-4.71;100.00
35435;BME280;21556;55.782;37.528;2023-11-21T05:58:29;99377.22;;;-4.68;100.00
35435;BME280;21556;55.782;37.528;2023-11-21T06:00:55;99383.91;;;-4.81;100.00
35435;BME280;21556;55.782;37.528;2023-11-21T06:03:21;99385.59;;;-5.41;100.00
35435;BME280;21556;55.782;37.528;2023-11-21T06:05:48;99384.72;;;-5.18;100.00
35435;BME280;21556;55.782;37.528;2023-11-21T06:08:14;99380.72;;;-5.14;100.00
35435;BME280;21556;55.782;37.528;2023-11-21T06:10:43;99388.63;;;-5.23;100.00
35435;BME280;21556;55.782;37.528;2023-11-21T06:13:09;99390.94;;;-5.02;100.00
35435;BME280;21556;55.782;37.528;2023-11-21T06:15:36;99396.38;;;-4.98;100.00
35435;BME280;21556;55.782;37.528;2023-11-21T06:18:12;99391.06;;;-4.41;100.00
35435;BME280;21556;55.782;37.528;2023-11-21T06:20:38;99397.72;;;-5.15;100.00
35435;BME280;21556;55.782;37.528;2023-11-21T06:23:04;99404.72;;;-5.12;100.00
35435;BME280;21556;55.782;37.528;2023-11-21T06:25:33;99398.81;;;-4.76;100.00
35435;BME280;21556;55.782;37.528;2023-11-21T06:28:02;99386.78;;;-4.53;100.00
35435;BME280;21556;55.782;37.528;2023-11-21T06:30:28;99386.59;;;-4.43;100.00
35435;BME280;21556;55.782;37.528;2023-11-21T06:32:54;99399.94;;;-4.96;100.00
35435;BME280;21556;55.782;37.528;2023-11-21T06:35:21;99398.78;;;-4.52;100.00
35435;BME280;21556;55.782;37.528;2023-11-21T06:37:48;99401.50;;;-5.10;100.00
35435;BME280;21556;55.782;37.528;2023-11-21T06:40:14;99401.19;;;-4.30;100.00
35435;BME280;21556;55.782;37.528;2023-11-21T06:42:44;99402.69;;;-4.57;100.00
35435;BME280;21556;55.782;37.528;2023-11-21T06:45:10;99404.53;;;-4.43;100.00
35435;BME280;21556;55.782;37.528;2023-11-21T06:47:37;99404.00;;;-4.39;100.00
35435;BME280;21556;55.782;37.528;2023-11-21T06:50:06;99403.84;;;-4.29;100.00
35435;BME280;21556;55.782;37.528;2023-11-21T06:52:32;99417.38;;;-4.55;100.00
35435;BME280;21556;55.782;37.528;2023-11-21T06:54:59;99411.13;;;-4.58;100.00
35435;BME280;21556;55.782;37.528;2023-11-21T06:57:25;99417.28;;;-4.68;100.00
35435;BME280;21556;55.782;37.528;2023-11-21T06:59:54;99408.34;;;-4.38;100.00
35435;BME280;21556;55.782;37.528;2023-11-21T07:02:24;99409.19;;;-4.86;100.00
35435;BME280;21556;55.782;37.528;2023-11-21T07:05:16;99406.78;;;-4.48;100.00
35435;BME280;21556;55.782;37.528;2023-11-21T07:08:41;99405.63;;;-4.28;100.00
35435;BME280;21556;55.782;37.528;2023-11-21T07:17:49;99412.19;;;-4.20;100.00
35435;BME280;21556;55.782;37.528;2023-11-21T07:20:16;99411.91;;;-4.48;100.00
35435;BME280;21556;55.782;37.528;2023-11-21T07:22:43;99417.19;;;-4.93;100.00
35435;BME280;21556;55.782;37.528;2023-11-21T07:25:16;99418.75;;;-4.72;100.00
35435;BME280;21556;55.782;37.528;2023-11-21T07:27:43;99414.50;;;-4.60;100.00
35435;BME280;21556;55.782;37.528;2023-11-21T07:30:10;99422.41;;;-4.56;100.00
35435;BME280;21556;55.782;37.528;2023-11-21T07:32:39;99414.22;;;-4.27;100.00
35435;BME280;21556;55.782;37.528;2023-11-21T07:35:06;99415.91;;;-4.51;100.00
35435;BME280;21556;55.782;37.528;2023-11-21T07:37:33;99421.25;;;-4.48;100.00
35435;BME280;21556;55.782;37.528;2023-11-21T07:39:59;99421.94;;;-4.39;100.00
35435;BME280;21556;55.782;37.528;2023-11-21T07:42:25;99427.28;;;-4.83;100.00
35435;BME280;21556;55.782;37.528;2023-11-21T07:44:52;99426.41;;;-4.60;100.00
35435;BME280;21556;55.782;37.528;2023-11-21T07:47:18;99415.91;;;-4.51;100.00
35435;BME280;21556;55.782;37.528;2023-11-21T07:49:44;99412.97;;;-4.21;100.00
35435;BME280;21556;55.782;37.528;2023-11-21T07:52:16;99417.00;;;-4.24;100.00
35435;BME280;21556;55.782;37.528;2023-11-21T07:58:32;99417.06;;;-4.23;100.00
35435;BME280;21556;55.782;37.528;2023-11-21T08:01:02;99420.53;;;-4.22;100.00
35435;BME280;21556;55.782;37.528;2023-11-21T08:03:28;99410.56;;;-4.06;100.00
35435;BME280;21556;55.782;37.528;2023-11-21T08:05:58;99406.59;;;-3.89;100.00
35435;BME280;21556;55.782;37.528;2023-11-21T08:08:25;99404.34;;;-4.09;100.00
35435;BME280;21556;55.782;37.528;2023-11-21T08:10:51;99418.34;;;-4.04;100.00
35435;BME280;21556;55.782;37.528;2023-11-21T08:13:26;99415.53;;;-4.21;100.00
35435;BME280;21556;55.782;37.528;2023-11-21T08:15:55;99408.59;;;-4.58;100.00
35435;BME280;21556;55.782;37.528;2023-11-21T08:18:29;99399.63;;;-4.03;100.00
35435;BME280;21556;55.782;37.528;2023-11-21T08:20:56;99403.66;;;-4.32;100.00
35435;BME280;21556;55.782;37.528;2023-11-21T08:23:23;99397.03;;;-4.17;100.00
35435;BME280;21556;55.782;37.528;2023-11-21T08:25:54;99394.09;;;-4.09;100.00
35435;BME280;21556;55.782;37.528;2023-11-21T08:28:21;99408.69;;;-4.45;100.00
35435;BME280;21556;55.782;37.528;2023-11-21T08:30:52;99398.44;;;-4.08;100.00
35435;BME280;21556;55.782;37.528;2023-11-21T08:33:23;99397.34;;;-3.87;100.00
35435;BME280;21556;55.782;37.528;2023-11-21T08:35:49;99390.78;;;-4.20;100.00
35435;BME280;21556;55.782;37.528;2023-11-21T08:38:18;99403.06;;;-4.65;100.00
35435;BME280;21556;55.782;37.528;2023-11-21T08:40:44;99391.78;;;-3.93;100.00
35435;BME280;21556;55.782;37.528;2023-11-21T08:43:10;99400.06;;;-4.82;100.00
35435;BME280;21556;55.782;37.528;2023-11-21T08:45:40;99397.66;;;-4.44;100.00
35435;BME280;21556;55.782;37.528;2023-11-21T08:48:06;99393.41;;;-4.44;100.00
35435;BME280;21556;55.782;37.528;2023-11-21T08:50:32;99392.16;;;-4.86;100.00
35435;BME280;21556;55.782;37.528;2023-11-21T08:52:58;99390.13;;;-4.29;100.00
35435;BME280;21556;55.782;37.528;2023-11-21T08:55:30;99402.22;;;-4.52;100.00
35435;BME280;21556;55.782;37.528;2023-11-21T08:58:00;99397.72;;;-4.31;100.00
35435;BME280;21556;55.782;37.528;2023-11-21T09:00:26;99393.22;;;-4.58;100.00
35435;BME280;21556;55.782;37.528;2023-11-21T09:02:52;99402.63;;;-5.18;100.00
35435;BME280;21556;55.782;37.528;2023-11-21T09:05:24;99410.38;;;-4.69;100.00
35435;BME280;21556;55.782;37.528;2023-11-21T09:07:58;99408.16;;;-4.16;100.00
35435;BME280;21556;55.782;37.528;2023-11-21T09:10:27;99409.97;;;-4.27;100.00
35435;BME280;21556;55.782;37.528;2023-11-21T09:12:54;99423.19;;;-4.69;100.00
35435;BME280;21556;55.782;37.528;2023-11-21T09:15:20;99418.28;;;-4.18;100.00
35435;BME280;21556;55.782;37.528;2023-11-21T09:17:47;99428.69;;;-4.40;100.00
35435;BME280;21556;55.782;37.528;2023-11-21T09:20:13;99419.28;;;-4.52;100.00
35435;BME280;21556;55.782;37.528;2023-11-21T09:22:40;99423.88;;;-5.07;100.00
35435;BME280;21556;55.782;37.528;2023-11-21T09:25:06;99420.13;;;-4.03;100.00
35435;BME280;21556;55.782;37.528;2023-11-21T09:27:34;99421.97;;;-3.89;100.00
35435;BME280;21556;55.782;37.528;2023-11-21T09:30:01;99419.72;;;-4.21;100.00
35435;BME280;21556;55.782;37.528;2023-11-21T09:32:30;99423.03;;;-4.36;100.00
35435;BME280;21556;55.782;37.528;2023-11-21T09:34:55;99418.03;;;-4.09;100.00
35435;BME280;21556;55.782;37.528;2023-11-21T09:37:24;99418.44;;;-4.28;100.00
35435;BME280;21556;55.782;37.528;2023-11-21T09:39:50;99420.44;;;-4.24;100.00
35435;BME280;21556;55.782;37.528;2023-11-21T09:42:30;99421.81;;;-3.79;100.00
35435;BME280;21556;55.782;37.528;2023-11-21T09:45:03;99422.66;;;-3.92;100.00
35435;BME280;21556;55.782;37.528;2023-11-21T09:47:34;99426.88;;;-4.17;100.00
35435;BME280;21556;55.782;37.528;2023-11-21T09:50:02;99440.88;;;-4.61;100.00
35435;BME280;21556;55.782;37.528;2023-11-21T09:52:29;99431.47;;;-4.25;100.00
35435;BME280;21556;55.782;37.528;2023-11-21T09:55:01;99433.84;;;-4.03;100.00
35435;BME280;21556;55.782;37.528;2023-11-21T09:57:29;99435.44;;;-3.80;100.00
35435;BME280;21556;55.782;37.528;2023-11-21T09:59:56;99436.59;;;-4.37;100.00
35435;BME280;21556;55.782;37.528;2023-11-21T10:02:27;99438.53;;;-4.09;100.00
35435;BME280;21556;55.782;37.528;2023-11-21T10:04:59;99436.53;;;-3.51;100.00
35435;BME280;21556;55.782;37.528;2023-11-21T10:07:26;99446.31;;;-4.07;100.00
35435;BME280;21556;55.782;37.528;2023-11-21T10:09:53;99442.31;;;-4.04;100.00
35435;BME280;21556;55.782;37.528;2023-11-21T10:12:19;99440.22;;;-4.70;100.00
35435;BME280;21556;55.782;37.528;2023-11-21T10:14:48;99450.13;;;-4.14;100.00
35435;BME280;21556;55.782;37.528;2023-11-21T10:17:15;99438.31;;;-4.49;100.00
35435;BME280;21556;55.782;37.528;2023-11-21T10:19:46;99434.84;;;-4.49;100.00
35435;BME280;21556;55.782;37.528;2023-11-21T10:22:15;99443.53;;;-4.36;100.00
35435;BME280;21556;55.782;37.528;2023-11-21T10:24:41;99440.97;;;-3.99;100.00
35435;BME280;21556;55.782;37.528;2023-11-21T10:27:09;99441.84;;;-4.47;100.00
35435;BME280;21556;55.782;37.528;2023-11-21T10:29:35;99442.66;;;-4.11;100.00
35435;BME280;21556;55.782;37.528;2023-11-21T10:32:04;99439.00;;;-4.15;100.00
35435;BME280;21556;55.782;37.528;2023-11-21T10:34:31;99439.25;;;-3.87;100.00
35435;BME280;21556;55.782;37.528;2023-11-21T10:37:00;99438.81;;;-3.93;100.00
35435;BME280;21556;55.782;37.528;2023-11-21T10:39:36;99434.31;;;-4.08;100.00
35435;BME280;21556;55.782;37.528;2023-11-21T10:42:02;99435.13;;;-3.96;100.00
35435;BME280;21556;55.782;37.528;2023-11-21T10:44:28;99431.66;;;-4.22;100.00
35435;BME280;21556;55.782;37.528;2023-11-21T10:46:57;99433.66;;;-4.18;100.00
35435;BME280;21556;55.782;37.528;2023-11-21T10:49:25;99443.19;;;-3.67;100.00
35435;BME280;21556;55.782;37.528;2023-11-21T10:51:55;99434.94;;;-3.74;100.00
35435;BME280;21556;55.782;37.528;2023-11-21T10:54:23;99442.53;;;-3.51;100.00
35435;BME280;21556;55.782;37.528;2023-11-21T10:56:52;99436.25;;;-3.43;100.00
35435;BME280;21556;55.782;37.528;2023-11-21T10:59:22;99440.50;;;-3.93;100.00
35435;BME280;21556;55.782;37.528;2023-11-21T11:01:51;99439.16;;;-3.63;100.00
35435;BME280;21556;55.782;37.528;2023-11-21T11:04:19;99449.88;;;-4.54;100.00
35435;BME280;21556;55.782;37.528;2023-11-21T11:06:55;99450.13;;;-4.02;100.00
35435;BME280;21556;55.782;37.528;2023-11-21T11:09:23;99453.78;;;-4.59;100.00
35435;BME280;21556;55.782;37.528;2023-11-21T11:11:51;99448.97;;;-4.31;100.00
35435;BME280;21556;55.782;37.528;2023-11-21T11:14:17;99445.03;;;-4.26;100.00
35435;BME280;21556;55.782;37.528;2023-11-21T11:16:45;99447.53;;;-4.51;100.00
35435;BME280;21556;55.782;37.528;2023-11-21T11:19:11;99448.13;;;-4.18;100.00
35435;BME280;21556;55.782;37.528;2023-11-21T11:21:54;99434.78;;;-3.89;100.00
35435;BME280;21556;55.782;37.528;2023-11-21T11:24:42;99440.50;;;-4.30;100.00
35435;BME280;21556;55.782;37.528;2023-11-21T11:27:34;99438.22;;;-3.77;100.00
35435;BME280;21556;55.782;37.528;2023-11-21T11:30:23;99442.84;;;-3.71;100.00
35435;BME280;21556;55.782;37.528;2023-11-21T11:33:19;99451.06;;;-3.64;100.00
35435;BME280;21556;55.782;37.528;2023-11-21T11:36:22;99444.41;;;-3.98;100.00
35435;BME280;21556;55.782;37.528;2023-11-21T11:38:51;99457.47;;;-4.79;100.00
35435;BME280;21556;55.782;37.528;2023-11-21T11:41:30;99460.47;;;-4.01;100.00
35435;BME280;21556;55.782;37.528;2023-11-21T11:44:00;99470.53;;;-4.16;100.00
35435;BME280;21556;55.782;37.528;2023-11-21T11:46:43;99466.81;;;-4.07;100.00
35435;BME280;21556;55.782;37.528;2023-11-21T11:49:26;99463.38;;;-4.08;100.00
35435;BME280;21556;55.782;37.528;2023-11-21T11:53:12;99464.63;;;-4.15;100.00
35435;BME280;21556;55.782;37.528;2023-11-21T11:54:59;99463.59;;;-4.53;100.00
35435;BME280;21556;55.782;37.528;2023-11-21T11:57:25;99454.41;;;-3.90;100.00
35435;BME280;21556;55.782;37.528;2023-11-21T12:00:17;99467.25;;;-3.65;100.00
35435;BME280;21556;55.782;37.528;2023-11-21T12:02:48;99459.47;;;-3.78;100.00
35435;BME280;21556;55.782;37.528;2023-11-21T12:05:16;99464.06;;;-3.74;100.00
35435;BME280;21556;55.782;37.528;2023-11-21T12:07:52;99475.38;;;-3.95;100.00
35435;BME280;21556;55.782;37.528;2023-11-21T12:10:23;99479.53;;;-3.72;100.00
35435;BME280;21556;55.782;37.528;2023-11-21T12:13:01;99484.19;;;-3.92;100.00
35435;BME280;21556;55.782;37.528;2023-11-21T12:15:28;99492.25;;;-4.22;100.00
35435;BME280;21556;55.782;37.528;2023-11-21T12:17:57;99492.44;;;-3.96;100.00
35435;BME280;21556;55.782;37.528;2023-11-21T12:20:25;99493.84;;;-4.60;100.00
35435;BME280;21556;55.782;37.528;2023-11-21T12:22:58;99492.59;;;-4.29;100.00
35435;BME280;21556;55.782;37.528;2023-11-21T12:25:29;99489.06;;;-4.67;100.00
35435;BME280;21556;55.782;37.528;2023-11-21T12:27:59;99486.88;;;-4.02;100.00
35435;BME280;21556;55.782;37.528;2023-11-21T12:30:29;99493.59;;;-4.16;100.00
35435;BME280;21556;55.782;37.528;2023-11-21T12:33:01;99499.13;;;-3.98;100.00
35435;BME280;21556;55.782;37.528;2023-11-21T12:35:29;99494.25;;;-4.18;100.00
35435;BME280;21556;55.782;37.528;2023-11-21T12:37:56;99494.66;;;-4.00;100.00
35435;BME280;21556;55.782;37.528;2023-11-21T12:40:25;99506.09;;;-4.44;100.00
35435;BME280;21556;55.782;37.528;2023-11-21T12:42:53;99508.66;;;-4.32;100.00
35435;BME280;21556;55.782;37.528;2023-11-21T12:45:24;99507.88;;;-3.82;100.00
35435;BME280;21556;55.782;37.528;2023-11-21T12:47:57;99506.59;;;-4.01;100.00
35435;BME280;21556;55.782;37.528;2023-11-21T12:50:27;99510.44;;;-4.43;100.00
35435;BME280;21556;55.782;37.528;2023-11-21T12:53:04;99510.50;;;-4.18;100.00
35435;BME280;21556;55.782;37.528;2023-11-21T12:55:32;99497.41;;;-4.46;100.00
35435;BME280;21556;55.782;37.528;2023-11-21T12:58:01;99499.31;;;-4.31;100.00
35435;BME280;21556;55.782;37.528;2023-11-21T13:03:10;99503.19;;;-4.37;100.00